x

8419317 - Wells, Me (welm1) Weather Station

7:30 - Sat 24th Sep 2016 All times are EDT. -4 hours from GMT.

  • Wind
    7mph, 10mph gusts
  • Sea Temp 60°f
  • Luft Temp 56°f
  • Sea Pressure 1017.8mb
  • 8419317 - Wells, Me
  • 8419317 - Wells, Me

More Historic Weather Station data

Upgrade to MSW Pro to gain access to the past 30 days of data for over 8000 Wavebouys and Weather Stations around the globe.

Join Pro

Comparision Forecast

View Surf forecast
   
Sa 09/24 7:30 7 10 mph 1017.8mb 60f 56f
7:24 6 8 mph 1017.7mb 60f 56f
7:18 7 8 mph 1017.8mb 60f 56f
7:12 6 7 mph 1017.9mb 60f 57f
7:06 5 7 mph 1018mb 60f 57f
7:00  -  mph 1017.9mb 60f 57f
6:54  -  mph 1017.9mb 60f 58f
6:48 5 7 mph 1017.9mb 60f -
6:42 6 8 mph 1017.8mb 60f -
6:36 5 6 mph 1017.6mb 60f -
6:30 6 7 mph - 60f -
6:24 3 6 mph - 60f -
6:18 6 7 mph 1017.4mb 60f 59f
6:12 6 8 mph 1017.5mb 60f 60f
6:06 7 9 mph 1017.4mb 60f 60f
6:00 7 8 mph 1017.4mb 60f 60f
5:54 6 8 mph 1017.2mb 60f 60f
5:48 6 9 mph 1017.1mb 60f 60f
5:42 6 8 mph 1017.1mb 60f 61f
5:36 6 9 mph 1017mb 60f 61f
5:30 7 10 mph 1017.1mb 60f 61f
5:24 9 11 mph 1016.9mb 60f 61f
5:18 8 11 mph 1016.9mb 60f 61f
5:12 9 13 mph 1017mb 60f 61f
5:06 10 14 mph 1017mb 60f 62f
5:00 8 13 mph 1016.9mb 60f 63f
4:54 7 13 mph 1016.9mb 60f 63f
4:48 10 15 mph 1016.8mb 60f 63f
4:42 9 15 mph 1016.8mb 60f 63f
4:36 9 13 mph 1016.7mb 60f 64f
4:30 10 14 mph 1016.7mb 60f 64f
4:24 9 16 mph 1016.7mb 60f 64f
4:18 9 16 mph 1016.8mb 60f 64f
4:12 14 17 mph 1016.8mb 60f 64f
4:06 11 16 mph 1016.9mb 60f 64f
4:00 8 13 mph 1016.9mb 60f 65f
3:54 10 14 mph 1017mb 60f 64f
3:48 11 16 mph 1016.9mb 60f 63f
3:42 9 20 mph 1017mb 60f 64f
3:36 10 16 mph 1016.9mb 60f 65f
3:30 13 17 mph 1016.9mb 60f 65f
3:24 7 11 mph 1017mb 60f 64f
3:18 13 16 mph 1017mb 60f 63f
3:12 6 13 mph 1017.1mb 60f 63f
3:06 10 15 mph 1017.1mb 60f 63f
3:00 9 14 mph 1017.1mb 60f 63f
2:54 6 11 mph 1017.2mb 60f 64f
2:48 9 13 mph 1017.2mb 60f 63f
2:42 13 15 mph 1017.2mb 60f 63f
2:36 6 10 mph 1017.2mb 60f 64f
2:30 8 10 mph 1017.3mb 60f 63f
2:24 8 11 mph 1017.4mb 60f 62f
2:18 7 14 mph 1017.4mb 60f 62f
2:12 10 16 mph 1017.4mb 60f 63f
2:06 10 15 mph 1017.4mb 60f 62f
2:00 6 11 mph 1017.5mb 60f 63f
1:54 8 11 mph 1017.6mb 60f 62f
1:48 10 18 mph 1017.7mb 60f 62f
1:42 10 14 mph 1017.7mb 60f 62f
1:36 2 8 mph 1017.7mb 60f 64f
1:30 7 10 mph 1017.8mb 60f 64f
1:24 7 13 mph 1017.9mb 60f 62f
1:18 11 14 mph 1018mb 59f 62f
1:12 8 10 mph 1018mb 59f 62f
1:06 5 10 mph 1018.1mb 59f 63f
1:00 10 15 mph 1018.3mb 59f 62f
12:54 13 17 mph 1018.3mb 59f 61f
12:48 13 18 mph 1018.2mb 59f 62f
12:42 10 16 mph 1018.3mb 59f 62f
12:36 13 18 mph 1018.4mb 59f 62f
12:30 13 18 mph 1018.4mb 59f 62f
12:24 10 15 mph 1018.5mb 59f 61f
12:18 11 14 mph 1018.6mb 59f 62f
12:12 9 20 mph 1018.7mb 59f 61f
12:06 14 20 mph 1018.7mb 59f 61f
12:00 11 17 mph 1018.8mb 59f 61f
11:54 10 14 mph 1018.9mb 59f 61f
11:48 9 18 mph 1019mb 60f 61f
11:42 10 17 mph 1019mb 60f 61f
11:36 14 17 mph 1019.1mb 60f 61f
11:30 8 11 mph 1019.2mb 60f 60f
11:24 13 16 mph 1019.3mb 60f 60f
11:18 11 15 mph 1019.4mb 60f 60f
11:12 11 14 mph 1019.5mb 60f 60f
11:06 7 16 mph 1019.5mb 60f 60f
11:00 9 14 mph 1019.5mb 60f 60f
10:54 8 10 mph 1019.5mb 60f 59f
10:48 7 13 mph 1019.6mb 60f 59f
10:42 8 14 mph 1019.6mb 60f 58f
10:36 13 14 mph 1019.7mb 60f 58f
10:30 11 15 mph 1019.6mb 60f 58f
10:24 10 14 mph 1019.7mb 60f 58f
10:18 10 14 mph 1019.7mb 60f 58f
10:12 11 15 mph 1019.7mb 60f 58f
10:06 9 14 mph 1019.8mb 60f 57f
10:00 11 16 mph 1019.9mb 60f 57f
9:54 13 15 mph 1020mb 60f 57f
9:48 14 16 mph 1019.9mb 60f 57f
9:42 14 16 mph 1019.9mb 60f 56f
9:36 9 14 mph 1019.9mb 60f 57f
9:30 13 16 mph 1019.8mb 60f 56f
9:24 10 14 mph 1019.8mb 60f 56f
9:18 10 15 mph 1019.7mb 60f 56f
9:12 13 14 mph 1019.7mb 59f 55f
9:06 11 15 mph 1019.7mb 60f 55f
9:00 10 13 mph 1019.7mb 59f 55f
8:54 10 14 mph 1019.7mb 59f 54f
8:48 11 14 mph 1019.7mb 59f 54f
8:42 11 14 mph 1019.6mb 59f 54f
8:36 10 13 mph 1019.6mb 59f 54f
8:30 8 11 mph 1019.7mb 59f 54f
8:24 8 11 mph 1019.6mb 59f 53f
8:18 9 13 mph 1019.6mb 59f 53f
8:12 8 13 mph 1019.6mb 60f 52f
8:06 10 13 mph 1019.8mb 60f 52f
8:00 10 13 mph 1019.9mb 60f 51f
7:54 9 11 mph 1019.9mb 60f 51f
7:48 9 11 mph 1019.9mb 60f 50f
7:42 10 13 mph 1019.9mb 60f 50f
7:36 10 13 mph 1020.1mb 60f 49f
7:30 9 11 mph 1020.1mb 60f 49f
7:24 8 10 mph 1020.1mb 60f 49f
7:18 7 10 mph 1020.1mb 60f 49f
7:12 8 10 mph 1020mb 60f 48f
7:06 9 10 mph 1019.8mb 60f 48f
7:00 8 10 mph 1019.7mb 60f 48f
6:54 7 8 mph 1019.7mb 60f 48f
6:48 7 8 mph 1019.6mb 60f 47f
6:42 7 9 mph 1019.5mb 60f 47f
6:36 8 9 mph 1019.4mb 60f 47f
6:30 8 9 mph 1019.5mb 60f 47f
6:24 8 10 mph 1019.5mb 60f 47f
6:18 9 11 mph 1019.5mb 60f 47f
6:12 8 10 mph 1019.5mb 60f 48f
6:06 8 9 mph 1019.5mb 60f 48f
6:00 6 8 mph 1019.4mb 60f 48f
5:54 6 8 mph 1019.3mb 60f 48f
5:48 7 8 mph 1019.2mb 60f 47f
5:42 7 8 mph 1019.2mb 60f 47f
5:36 7 8 mph 1019.2mb 60f 48f
5:30 6 8 mph 1019mb 60f 48f
5:24 7 8 mph 1019mb 60f 48f
5:18 7 8 mph 1019.1mb 60f 48f
5:12 7 9 mph 1019.1mb 60f 48f
5:06 8 10 mph 1019.1mb 60f 48f
5:00 8 9 mph 1019.1mb 60f 48f
4:54 8 10 mph 1019mb 60f 48f
4:48 8 10 mph 1018.9mb 60f 48f
4:42 8 10 mph 1018.8mb 60f 49f
4:36 8 9 mph 1018.7mb 60f 49f
4:30 7 8 mph 1018.7mb 60f 49f
4:24 6 7 mph 1018.6mb 60f 49f
4:18 6 7 mph 1018.5mb 60f 49f
4:12 6
mph
1018.5mb 60f 49f
4:06 5 6 mph 1018.4mb 60f 49f
4:00 6
mph
1018.3mb 60f 49f
3:54 5 6 mph 1018.3mb 60f 49f
3:48 6 7 mph 1018.4mb 60f 50f
3:42 6 7 mph 1018.5mb 60f 50f
3:36 6 8 mph 1018.5mb 60f 50f
3:30 7 9 mph 1018.5mb 60f 50f
3:24 7 8 mph 1018.6mb 60f 50f
3:18 7 8 mph 1018.6mb 60f 51f
3:12 7 8 mph 1018.7mb 60f 51f
3:06 8
mph
1018.8mb 60f 51f
3:00 7 8 mph 1018.8mb 60f 51f
2:54 8 9 mph 1018.9mb 60f 51f
2:48 9 10 mph 1019mb 60f 52f
2:42 8 10 mph 1019mb 61f 51f
2:36 7 9 mph 1019.1mb 61f 52f
2:30 8 10 mph 1019.2mb 61f 52f
2:24 8 11 mph 1019.2mb 61f 52f
2:18 9 11 mph 1019.1mb 61f 52f
2:12 9 11 mph 1019.2mb 61f 53f
2:06 9 11 mph 1019.2mb 61f 53f
2:00 9 10 mph 1019.3mb 61f 53f
1:54 9 10 mph 1019.3mb 61f 54f
1:48 8 10 mph 1019.3mb 60f 54f
1:42 8 11 mph 1019.3mb 60f 55f
1:36 8 10 mph 1019.3mb 60f 55f
1:30 7 10 mph 1019.3mb 60f 55f
1:24 7 10 mph 1019.2mb 60f 55f
1:18 8 11 mph 1019.4mb 60f 56f
1:12 8 11 mph 1019.3mb 60f 56f
1:06 7 9 mph 1019.3mb 60f 56f
1:00 6 8 mph 1019.2mb 60f 56f
12:54 6 9 mph 1019.3mb 60f 57f
12:48 7 9 mph 1019.2mb 60f 57f
12:42 6 9 mph 1019.2mb 60f 57f
12:36 7 9 mph 1019.1mb 60f 57f
12:30 3 6 mph 1019.1mb 60f 57f
12:24 3 5 mph 1018.9mb 60f 57f
12:18 5 6 mph 1018.9mb 60f 57f
12:12 5 6 mph 1018.9mb 60f 57f
12:06 6 7 mph 1018.8mb 60f 58f
12:00 5 6 mph 1018.9mb 60f 58f
Fr 09/23 11:54 6 10 mph 1018.9mb 60f 58f
11:48 7 9 mph 1018.8mb 60f 58f
11:42 7 10 mph 1018.7mb 60f 58f
11:36 6 8 mph 1018.6mb 60f 58f
11:30 7 9 mph 1018.6mb 60f 58f
11:24 7 9 mph 1018.7mb 60f 58f
11:18 7 9 mph 1018.6mb 60f 58f
11:12 9 10 mph 1018.7mb 60f 58f
11:06 9 13 mph 1018.7mb 60f 59f
11:00 10 14 mph 1018.7mb 60f 59f
10:54 8 13 mph 1018.6mb 60f 59f
10:48 8 10 mph 1018.6mb 60f 59f
10:42 8 15 mph 1018.5mb 60f 59f
10:36 10 15 mph 1018.4mb 60f 59f
10:30 10 15 mph 1018.3mb 60f 59f
10:24 8 10 mph 1018.2mb 60f 59f
10:18 6 8 mph 1018.1mb 60f 59f
10:12 7 9 mph 1017.9mb 60f 59f
10:06 8 11 mph 1017.8mb 60f 59f
10:00 8 10 mph 1017.9mb 60f 59f
9:54 7 9 mph 1017.9mb 60f 59f
9:48 6 9 mph 1017.9mb 60f 59f
9:42 5 7 mph 1018.1mb 60f 59f
9:36 5 6 mph 1018.2mb 60f 59f
9:30 5 7 mph 1018.1mb 60f 59f
9:24 6 7 mph 1018mb 60f 59f
9:18 5 7 mph 1017.9mb 60f 59f
9:12 6 9 mph 1017.8mb 60f 60f
9:06 6 10 mph 1017.9mb 60f 60f
9:00 7 10 mph 1017.8mb 60f 60f
8:54 5 6 mph 1017.8mb 60f 59f
8:48  -  mph 1017.7mb 60f -
8:42  -  mph 1017.8mb 60f -
8:36  -  mph 1017.9mb 60f -
8:30 6 8 mph 1017.7mb 60f 60f
8:24 6 8 mph 1017.6mb 60f 60f
8:18 6 9 mph 1017.6mb 60f 60f
8:12 6 8 mph 1017.6mb 60f 60f
8:06 6 7 mph 1017.5mb 60f 60f
8:00 5 6 mph 1017.5mb 60f 60f
7:54 6 7 mph 1017.4mb 60f 60f
7:48 6 7 mph 1017.3mb 60f -
7:42 6
mph
1017.3mb 60f -
7:36 5 7 mph 1017.2mb 60f -
7:30 6 8 mph - 60f -
7:24 6 8 mph - 60f -
7:18 5 9 mph 1017.1mb 60f 61f
7:12 8 10 mph 1017.2mb 60f 61f
7:06 7 10 mph 1017.1mb 60f 61f
7:00 8 10 mph 1017mb 60f 61f
6:54 10 14 mph 1016.8mb 60f 61f
6:48 8 15 mph 1016.8mb 60f -
6:42 10 17 mph 1016.9mb 60f -
6:36 9 10 mph 1016.9mb 60f -
6:30 8 11 mph 1016.9mb 60f 62f
6:24 7 9 mph 1016.8mb 60f 62f
6:18 9 11 mph 1016.7mb 60f 62f
6:12 8 14 mph 1016.6mb 60f 62f
6:06 11 13 mph 1016.5mb 60f 62f
6:00 9 14 mph 1016.4mb 60f -
5:54 10 13 mph 1016.3mb 60f -
5:48 11 15 mph 1016.3mb 60f 62f
5:42 11 17 mph 1016.2mb 60f 62f
5:36 14 17 mph 1016mb 60f 62f
5:30 10 14 mph 1016.1mb 60f 62f
5:24 11 14 mph 1016mb 60f 62f
5:18 13 15 mph 1015.9mb 60f 62f
5:12 13 14 mph 1015.9mb 60f 63f
5:06 13 16 mph 1015.7mb 60f 63f
5:00 14 16 mph 1015.8mb 60f 63f
4:54 13 17 mph 1015.7mb 60f 63f
4:48 14 17 mph 1015.6mb 60f 63f
4:42 11 17 mph 1015.6mb 60f 64f
4:36 13 17 mph 1015.4mb 60f 64f
4:30 11 17 mph 1015.2mb 60f 64f
4:24 11 16 mph 1015.1mb 60f 65f
4:18 10 14 mph 1014.9mb 60f 65f
4:12 10 13 mph 1014.9mb 60f 65f
4:06 10 14 mph 1014.7mb 60f 65f
4:00 7 13 mph 1014.8mb 60f 66f
3:54 3 6 mph 1014.9mb 60f 66f
3:48 2 6 mph 1014.8mb 59f 66f
3:42 3
mph
1014.6mb 59f 66f
3:36 2 3 mph 1014.6mb 59f 66f
3:30 3 5 mph 1014.5mb 59f 67f
3:24 3 5 mph 1014.5mb 59f 67f
3:18 2 5 mph 1014.3mb 59f 67f
3:12 1 6 mph 1014.3mb 59f 67f
3:06 2 3 mph 1014.3mb 59f 67f
3:00 3
mph
1014.1mb 59f 67f
2:54 2 3 mph 1014.2mb 59f 66f
2:48 2 3 mph 1014.2mb 59f 66f
2:42 3 6 mph 1014.1mb 59f 66f
2:36 5 6 mph 1013.9mb 59f 65f
2:30 2 3 mph 1014mb 59f 65f
2:24 3 6 mph 1014mb 59f 65f
2:18 3 5 mph 1013.8mb 59f 67f
2:12 3 5 mph 1013.7mb 60f 68f
2:06 3 6 mph 1013.9mb 60f 68f
2:00 5 6 mph 1013.9mb 60f 68f
1:54 5 6 mph 1014mb 61f 68f
1:48 5 7 mph 1014.2mb 61f 68f
1:42 3 7 mph 1014.4mb 61f 68f
1:36 5 8 mph 1014.4mb 61f 67f
1:30 3 6 mph 1014.3mb 61f 67f
1:24 5 8 mph 1014.4mb 61f 67f
1:18 7 10 mph 1014.4mb 61f 67f
1:12 6 10 mph 1014.4mb 61f 67f
1:06 8 11 mph 1014.5mb 61f 67f
1:00 6 8 mph 1014.5mb 61f 67f
12:54 5 7 mph 1014.6mb 61f 66f
12:48 6 9 mph 1014.7mb 61f 66f
12:42 5 7 mph 1014.6mb 61f 66f
12:36 5 7 mph 1014.7mb 61f 66f
12:30 5 7 mph 1014.5mb 61f 66f
12:24 5 8 mph 1014.4mb 61f 66f
12:18 6 8 mph 1014.3mb 61f 66f
12:12 3 6 mph 1014.3mb 61f 66f
12:06 3 5 mph 1014.4mb 61f 66f
12:00 3 6 mph 1014.5mb 61f 66f
11:54 2 5 mph 1014.5mb 61f 65f
11:48 3 5 mph 1014.4mb 61f 65f
11:42 2 5 mph 1014.4mb 61f 65f
11:36 1 3 mph 1014.3mb 61f 65f
11:30 3 6 mph 1014.2mb 61f 65f
11:24 5
mph
1014.2mb 61f 65f
11:18 5 6 mph 1014.3mb 61f 65f
11:12 3 5 mph 1014.2mb 61f 65f
11:06 2
mph
1014.3mb 61f 65f
11:00 2 3 mph 1014.3mb 61f 65f
10:54 1 3 mph 1014.2mb 61f 65f
10:48  -  1 mph 1014.2mb 61f 65f
10:42 1 5 mph 1014.1mb 61f 65f
10:36 5 6 mph 1014.1mb 61f 65f
10:30 3 6 mph 1014.1mb 61f 65f
10:24 5 6 mph 1014.1mb 61f 65f
10:18 5 7 mph 1014.1mb 61f 65f
10:12 7 9 mph 1014.3mb 61f 65f
10:06 7 13 mph 1014.4mb 61f 64f
10:00 7 10 mph 1014.6mb 61f 64f
9:54 6 9 mph 1014.6mb 61f 64f
9:48 6 9 mph 1014.6mb 61f 64f
9:42 5 8 mph 1014.8mb 61f 64f
9:36 5 8 mph 1015mb 61f 63f
9:30 7 11 mph 1015.1mb 61f 63f
9:18 7 13 mph 1015.5mb 61f 64f
9:12 6 8 mph 1015.5mb 61f 65f
9:06 5 6 mph 1015.2mb 61f 66f
9:00 5 7 mph 1015.2mb 61f 66f
8:54 3 5 mph 1015mb 61f 66f
8:48 2 8 mph 1015.1mb 61f 66f
8:42 6 8 mph 1015.2mb 61f 66f
8:36 5 9 mph 1015.2mb 61f 66f
8:30 6 9 mph 1015.3mb 61f 66f
8:24 6 10 mph 1015.5mb 61f 66f
8:18 6 10 mph 1015.7mb 61f 66f
8:12 5 8 mph 1015.6mb 61f 66f
8:06 6 9 mph 1015.8mb 61f 66f
8:00 8 10 mph 1015.9mb 61f 66f
7:54 8 10 mph 1015.8mb 60f 66f
7:48 7 10 mph 1015.6mb 60f 66f
7:42 7 10 mph 1015.4mb 60f 66f
7:36 6 10 mph 1015.2mb 60f 66f
7:30 6 8 mph 1015.2mb 60f 66f
7:24 6 7 mph 1015.4mb 60f 66f
7:18 6 10 mph 1015.2mb 60f 66f
7:12 6 10 mph 1015.3mb 60f 67f
7:06 6 11 mph 1015.3mb 60f 67f
7:00 6 10 mph 1015.3mb 60f 67f
6:54 8 11 mph 1015.3mb 60f 67f
6:48 8 11 mph 1015.2mb 60f 67f
6:42 8 16 mph 1015.2mb 60f 67f
6:36 8 10 mph 1015.1mb 60f 67f
6:30 6 9 mph 1015.1mb 60f 66f
6:24 6 8 mph 1014.9mb 60f 66f
6:18 7 9 mph 1014.9mb 60f 66f
6:12 6 9 mph 1014.9mb 60f 66f
6:06 6 10 mph 1014.9mb 60f 66f
6:00 6 10 mph 1014.8mb 60f 66f
5:54 5 8 mph 1014.9mb 60f 65f
5:48 5 8 mph 1014.9mb 60f 65f
5:42 5 7 mph 1015mb 60f 65f
5:36 5 7 mph 1015mb 60f 65f
5:30 3 7 mph 1015mb 60f 65f
5:24 6 7 mph 1015.1mb 60f 65f
5:18 5 9 mph 1015.1mb 60f 65f
5:12 6 9 mph 1015.2mb 60f 65f
5:06 8 11 mph 1015.3mb 60f 66f
5:00 7 10 mph 1015.3mb 60f 66f
4:48 5 7 mph 1015.4mb 60f 66f
4:42 5 9 mph 1015.5mb 60f 66f
4:36 5 6 mph 1015.5mb 60f 66f
4:30 2 6 mph 1015.1mb 60f 66f
4:24 2 6 mph 1015.1mb 60f 66f
4:18 2 5 mph 1015.2mb 60f 66f
4:12 2 6 mph 1015.2mb 60f 66f
4:06 3 8 mph 1015.2mb 60f 66f
4:00 6 10 mph 1015.1mb 60f 66f
3:54 7 11 mph 1015.1mb 60f 66f
3:48 8 10 mph 1015.2mb 60f 66f
3:42 7 11 mph 1015.3mb 60f 66f
3:36 8 13 mph 1015.4mb 60f 65f
3:30 7 9 mph 1015.5mb 60f 66f
3:24 6 9 mph 1015.5mb 60f 66f
3:18 8 11 mph 1015.6mb 60f 65f
3:12 9 11 mph 1015.6mb 60f 65f
3:06 8 11 mph 1015.7mb 60f 65f
3:00 6 8 mph 1015.8mb 60f 64f
2:54 5 6 mph 1015.9mb 60f -
2:48 3 6 mph 1015.9mb 60f 64f
2:42 3
mph
1015.9mb 60f -
2:36 1 3 mph 1016mb 60f -
2:30 2 5 mph 1016.1mb 60f -
2:24 2 3 mph 1016.2mb 60f 64f
2:18 3
mph
1016.2mb 61f 64f
2:12 2 3 mph 1016.2mb 61f 65f
2:06 3 6 mph 1016.2mb 61f 66f
2:00 5 9 mph 1016.2mb 62f 66f
1:54 7 10 mph 1016.2mb 62f 67f
1:48 9 13 mph - - -
1:42 6 8 mph 1016.1mb 63f 65f
1:36 5 7 mph 1016.2mb 64f 64f
1:30 7 8 mph 1016.2mb 64f 64f
1:24 8 11 mph 1016.3mb 64f 65f
1:18 10 11 mph 1016.2mb 64f 64f
1:12 9 10 mph 1016.2mb 64f 64f
1:06 8 11 mph 1016.3mb 64f 65f
1:00 8 10 mph 1016.4mb 64f 65f
12:54 9 10 mph 1016.4mb 64f 65f
12:48 8 9 mph 1016.5mb 64f 66f
12:42 8 10 mph 1016.6mb 64f 66f
12:36 7 8 mph 1016.7mb 64f 65f
12:30 7 9 mph 1016.8mb 64f 66f
12:24 3 6 mph 1016.9mb 64f 65f
12:18 5 6 mph 1016.9mb 64f 65f
12:12 6 7 mph 1017mb 64f 65f
12:06 7
mph
1017mb 64f 64f
12:00 5 6 mph 1017.1mb 64f 64f
Do 09/22 11:54 6 8 mph 1017.1mb 64f 65f
11:48 3 6 mph 1017.2mb 64f 64f
11:42 3 6 mph 1017.3mb 63f 65f
11:36 3 6 mph 1017.3mb 63f 65f
11:30 6 7 mph 1017.3mb 63f 65f
11:24 7 9 mph 1017.2mb 63f 65f
11:18 6 7 mph 1017.2mb 63f 64f
11:12 5 6 mph 1017.2mb 63f 63f
11:06 2 3 mph 1017.3mb 63f 63f
11:00  -  1 mph 1017.5mb 63f 62f
10:54  -  1 mph - - -
10:48  -  2 mph 1017.6mb 63f 62f
10:42 1 2 mph 1017.6mb 63f 62f
10:36 1 2 mph 1017.6mb 63f 62f
10:30  -  1 mph 1017.7mb 63f 63f
10:24  -  3 mph 1017.7mb 63f -
10:18  -  mph 1017.9mb 63f 62f
10:06  -  mph 1018mb 63f 64f
10:00 2
mph
1018mb 63f 64f
9:54 3 5 mph 1018mb 63f 64f
9:48 3 5 mph 1018mb 63f 65f
9:42 3
mph
1018mb 63f -
9:36 2 3 mph 1018.1mb 63f -
9:30 2 3 mph 1018.2mb 63f -
9:24 1 2 mph 1018.2mb 63f -
9:18  -  2 mph 1018.3mb 63f -
9:12 2 3 mph 1018.3mb 62f -
9:06 1 2 mph - 62f 62f
9:00 1 2 mph 1018.4mb 62f 62f
8:54  -  1 mph 1018.3mb 62f -
8:48  -  2 mph 1018.3mb 62f 61f
8:42 2 3 mph 1018.4mb 62f 61f
8:36 3
mph
1018.4mb 62f 61f
8:30 2 3 mph - - -
8:24 3
mph
1018.5mb 62f 62f
8:18 1 2 mph - - -
8:12 2 3 mph - - -
8:06 2 5 mph 1018.5mb 61f 64f
8:00 5
mph
1018.5mb 61f 65f
7:54 5
mph
1018.5mb 61f 65f
7:48 3 5 mph 1018.4mb 62f -
7:42 3 5 mph 1018.4mb 62f -
7:36 5 6 mph 1018.4mb 62f -
7:30 6 7 mph - 62f 65f
7:24 6 7 mph - 62f 66f
7:18 6 7 mph 1018.5mb 62f -
7:12 6 7 mph 1018.6mb 62f -
7:06 6 7 mph 1018.6mb 62f -
7:00 6 8 mph - 62f 65f
6:54 7 8 mph - 62f 66f
6:48 7 8 mph 1018.9mb 62f -
6:42 7 8 mph 1018.9mb 62f -
6:36 7 8 mph 1019mb 62f -
6:30 6 7 mph 1019mb 61f 68f
6:24 6 7 mph 1019mb 61f 68f
6:18 7 10 mph 1019mb 61f 69f
6:12 9 10 mph 1019.1mb 61f 69f
6:06 9 13 mph 1019.1mb 61f 69f
6:00 11 14 mph 1019.1mb 61f 69f
5:54 13 17 mph 1019.1mb 61f 69f
5:48 14 17 mph 1019.1mb 61f 69f
5:42 16 18 mph 1019.1mb 61f 70f
5:36 14 16 mph 1019.1mb 61f 70f
5:30 11 15 mph 1019.1mb 61f 70f
5:24 11 14 mph 1019.1mb 61f 70f
5:18 11 13 mph 1019.2mb 61f 70f
5:12 11 15 mph 1019.2mb 61f 70f
5:06 9 14 mph 1019.1mb 61f 70f
5:00 13 16 mph 1019.2mb 61f 70f
4:54 14 18 mph 1019.2mb 61f 70f
4:48 15 17 mph 1019.2mb 61f 70f
4:42 14 17 mph 1019.3mb 61f 70f
4:36 14 16 mph 1019.3mb 61f 70f
4:30 13 16 mph 1019.3mb 61f 70f
4:24 14 16 mph 1019.3mb 61f 70f
4:18 13 16 mph 1019.3mb - 70f
4:12 13 15 mph 1019.5mb - 70f
4:06 13 16 mph 1019.6mb - 70f
4:00 14 16 mph 1019.6mb 61f 70f
3:54 13 15 mph 1019.7mb 61f 71f
3:48 10 14 mph 1019.8mb 61f 70f
3:42 6 8 mph 1019.8mb 61f 70f
3:36 7 8 mph 1019.8mb 61f 69f
3:30 7 9 mph 1019.8mb 61f 69f
3:24 6 7 mph 1019.8mb 61f 69f
3:18 6 9 mph 1019.8mb 61f 68f
3:12 7 11 mph 1019.8mb 60f 68f
3:06 9 13 mph 1019.8mb 60f 69f
3:00 10 11 mph 1020mb 61f 69f
2:54 11 14 mph 1020.1mb 61f 69f
2:48 11 14 mph 1020.1mb 61f 70f
2:42 11 15 mph 1020.1mb 61f 70f
2:36 10 13 mph 1020.2mb 61f 69f
2:30 13 15 mph 1020.2mb 61f 69f
2:24 11 14 mph 1020.4mb 61f 70f
2:18 9 11 mph 1020.4mb 61f 70f
2:12 10 14 mph 1020.6mb 61f 70f
2:06 11 13 mph 1020.7mb 61f 69f
2:00 13 14 mph 1020.7mb 61f 69f
1:54 11 14 mph 1020.8mb 60f 69f
1:48 9 11 mph 1020.8mb 60f 70f
1:42 8 10 mph 1021mb 61f 70f
1:36 7 9 mph 1021.2mb 61f 71f
1:30 8 10 mph 1021.2mb 61f 70f
1:24 8
mph
1021.2mb 61f 71f
1:18 7 9 mph 1021.3mb 61f 71f
1:12 7 9 mph 1021.4mb 61f 71f
1:06 7 9 mph 1021.4mb 61f 71f
1:00 6 7 mph 1021.4mb 61f 72f
12:54 6
mph
1021.3mb 61f 72f
12:48 6
mph
1021.3mb 61f 72f
12:42 5 6 mph 1021.3mb 61f 72f
12:36 6 7 mph 1021.4mb 61f 71f
12:30 6 7 mph 1021.4mb 61f 71f
12:24 6 8 mph 1021.5mb 61f 71f
12:18 7 8 mph 1021.6mb 60f 71f
12:12 6 9 mph 1021.7mb 60f 71f
12:06 9
mph
1021.8mb 60f 70f
12:00 8 9 mph 1021.9mb 60f 71f
11:54 7 9 mph 1021.9mb 60f 71f
11:48 6 7 mph 1021.8mb 60f 72f
11:42 7
mph
1021.9mb 60f 71f
11:36 6 7 mph 1021.9mb 60f 71f
11:30 6 8 mph 1022mb 60f 71f
11:24 7 8 mph 1022mb 60f 71f
11:18 6 7 mph 1022mb 60f 71f
11:12 6
mph
1022.1mb 60f 71f
11:06 5 7 mph 1022mb 60f 70f
11:00 8
mph
1022mb 60f 70f
10:54 6 7 mph 1022mb 60f 71f
10:48 5 6 mph 1022mb 60f 71f
10:42 7 9 mph 1022.1mb 60f 71f
10:36 2 3 mph 1022.1mb 60f 74f
10:30 1 3 mph 1022mb 60f 72f
10:24 2 5 mph 1022mb 60f 71f
10:18 5 7 mph 1022mb 60f 71f
10:12 5 6 mph 1021.9mb 60f 71f
10:06 5 6 mph 1022mb 60f 71f
10:00 5 6 mph 1022mb 60f 70f
9:54 6
mph
1022.1mb 60f 70f
9:48 5 6 mph 1022.1mb 60f 70f
9:42 6 7 mph 1022.1mb 60f 69f
9:36 5 6 mph 1022.2mb 60f 68f
9:30 3 5 mph 1022.1mb 60f 68f
9:24 2 3 mph 1022.2mb 60f 67f
9:18 1 3 mph 1022.3mb 60f 67f
9:12 2 3 mph 1022.2mb 60f 66f
9:06 2 3 mph 1022.2mb 60f 65f
9:00 1 3 mph 1022.3mb 60f 65f
8:54 1 2 mph 1022.3mb 60f 64f
8:48 2 3 mph 1022.3mb 60f 64f
8:42  -  1 mph 1022.3mb 60f 63f
8:36  -  1 mph 1022.2mb 60f 63f
8:30  -  1 mph 1022.2mb 60f 62f
8:24 1 2 mph 1022.1mb 60f 62f
8:18 1
mph
1022.2mb 60f 62f
8:12  -  1 mph 1022.2mb 60f 63f
8:06  -  1 mph 1022.2mb 60f 63f
8:00 1
mph
1022.2mb 60f 63f
7:54  -  1 mph 1022mb 60f 65f
7:48 1 2 mph 1021.9mb 60f 64f
7:42 1 2 mph 1021.8mb 60f 62f
7:36 2 5 mph 1021.7mb 60f 61f
7:30 3 5 mph 1021.6mb 60f 61f
7:24 2
mph
1021.6mb 60f 62f
7:18 2
mph
1021.5mb 60f 63f
7:12 1 2 mph 1021.5mb 60f 60f
7:06 1 2 mph 1021.5mb 60f 60f
7:00 2 3 mph 1021.4mb 60f 60f
6:54 2 5 mph 1021.4mb 60f 60f
6:48 2 5 mph 1021.2mb 60f 59f
6:42 3 5 mph 1021.2mb 60f 58f
6:36 2
mph
1021.1mb 60f 56f
6:30 2 3 mph 1021.1mb 60f 56f
6:24 1 2 mph 1021mb 60f 56f
6:18 2
mph
1021mb 60f 57f
6:12 1 2 mph 1020.9mb 60f 56f
6:06  -  1 mph 1021mb 60f 57f
6:00  -  2 mph 1020.9mb 60f 56f
5:54  -  3 mph 1020.8mb 60f 57f
5:48 2 3 mph 1020.9mb 60f 57f
5:42 2
mph
1020.8mb 60f 57f
5:36 2 3 mph 1020.8mb 60f 57f
5:30 2
mph
1020.7mb 60f 56f
5:24 2
mph
1020.6mb 60f 56f
5:18 2
mph
1020.6mb 60f 56f
5:12 2
mph
1020.5mb 60f 57f
5:06 2
mph
1020.4mb 60f 57f
5:00 1 2 mph 1020.4mb 60f 58f
4:54  -  2 mph 1020.5mb 60f 58f
4:48 1 2 mph 1020.5mb 60f 58f
4:42  -  1 mph 1020.4mb 60f 57f
4:36 1
mph
1020.5mb 60f 57f
4:30  -  2 mph 1020.4mb 60f 57f
4:24 1 3 mph 1020.4mb 60f 57f
4:18 2 3 mph 1020.4mb 60f 57f
4:12 2
mph
1020.4mb 60f 58f
4:06 1 2 mph 1020.3mb 60f 60f
4:00 2
mph
1020.2mb 60f 60f
3:54 2
mph
1020.2mb 60f 60f
3:48 2 3 mph 1020.1mb 60f -
3:42 3 5 mph 1020mb 60f 60f
3:36 3 5 mph 1020mb 60f 59f
3:30 3
mph
1020mb 60f 59f
3:24  -  2 mph 1019.9mb 60f 59f
3:18  -  3 mph 1020mb 60f 59f
3:12  -  5 mph 1020mb 60f 59f
3:06 2 5 mph 1019.9mb 60f 59f
3:00 2 3 mph 1019.9mb 60f 58f
2:54 1 3 mph 1019.9mb 60f 57f
2:48 2 3 mph 1019.8mb 60f 58f
2:42 1 3 mph 1019.8mb 60f 58f
2:36 1 3 mph 1019.9mb 60f 58f
2:30 1 2 mph 1019.9mb 60f 58f
2:24  -  2 mph 1019.9mb 60f 59f
2:18 2 5 mph 1019.9mb 60f 60f
2:12 2 3 mph 1020.1mb 60f 61f
2:06 2
mph
1020.1mb 60f 62f
2:00 2 3 mph 1020.2mb 60f 61f
1:54 1 3 mph 1020.2mb 60f 60f
1:48 1 3 mph 1020.2mb 60f -
1:42 2 5 mph 1020.2mb 60f -
1:36 3 5 mph 1020.3mb 60f -
1:30 3 5 mph 1020.3mb 60f 62f
1:24 3 5 mph 1020.3mb 60f 61f
1:18 3
mph
1020.2mb 60f 61f
1:12  -  2 mph 1020.2mb 60f 60f
1:06 1 3 mph 1020.2mb 61f 60f
1:00 3 5 mph 1020.1mb 61f 61f
12:54 3 5 mph 1020.2mb 62f 63f
12:48 5 6 mph 1020.2mb 62f 64f
12:42 5 7 mph 1020.2mb 62f 64f
12:36 3 6 mph 1020.2mb 62f 64f
12:30 2 7 mph 1020.2mb 63f 63f
12:24 3 6 mph 1020.3mb 63f 63f
12:18 5 6 mph 1020.3mb 64f 64f
12:12 3 6 mph 1020.3mb 64f 63f
12:06 3 7 mph 1020.2mb 64f 63f
12:00 5 8 mph 1020.2mb 64f 63f
Mi 09/21 11:54 6 8 mph 1020.2mb 64f 63f
11:48 5 7 mph 1020.3mb 64f 63f
11:42 5 6 mph 1020.3mb 64f 63f
11:36 5 6 mph 1020.3mb 64f 63f
11:30 5 6 mph 1020.4mb 64f 63f
11:24 3 5 mph 1020.5mb 64f 63f
11:18 3
mph
1020.5mb 64f 63f
11:12 2 3 mph 1020.4mb 64f 63f
11:06 3 5 mph 1020.5mb 64f 63f
11:00 3 5 mph 1020.5mb 64f 63f
10:54 3
mph
1020.6mb 63f 64f
10:48 2 3 mph 1020.5mb 63f 64f
10:42  -  1 mph 1020.5mb 63f 62f
10:36  -  1 mph 1020.4mb 62f 62f
10:30  -  1 mph 1020.4mb 62f -
10:24  -  2 mph 1020.3mb 62f -
10:18 2
mph
1020.3mb 62f 62f
10:12  -  2 mph 1020.3mb 62f 64f
10:06 2
mph
1020.2mb 62f 65f
10:00  -  2 mph 1020.2mb 62f 64f
9:54 1 2 mph 1020.1mb 62f 65f
9:48  -  1 mph - 62f 65f
9:42 2 3 mph - 62f 67f
9:36 2 3 mph - 62f 67f
9:30  -  1 mph 1020.1mb 62f -
9:24  -  3 mph 1020.3mb 62f -
9:18 3 6 mph 1020.3mb 62f 68f
9:12 3 8 mph 1020.2mb 62f 69f
9:06 5 9 mph 1020.2mb 62f 69f
9:00 6 8 mph 1020.3mb 62f 68f
8:54 6 10 mph 1020.3mb 62f 69f
8:48 6 8 mph 1020.3mb 62f 68f
8:42 6 8 mph 1020.2mb 62f 68f
8:36 6 8 mph 1020.2mb 62f 68f
8:30 6 8 mph 1020.1mb 62f 69f
8:24 6 8 mph 1020.1mb 62f 69f
8:18  -  mph 1020.1mb 62f 69f
8:12  -  mph 1020.1mb 61f 69f
8:06  -  mph 1020.1mb 62f 69f
8:00 5 6 mph 1020.1mb 62f 69f
7:54 5 6 mph 1020mb 61f 69f
7:48 5 6 mph 1020mb 61f -
7:42 3 5 mph 1020mb 61f -
7:36 3 5 mph 1020mb 61f -
7:30 5 6 mph 1020mb 61f 70f
7:24 5 6 mph 1020mb 61f 71f
7:18 5 7 mph - 60f 71f
7:12 5 7 mph - 60f 72f
7:06 5 8 mph - 60f 72f
7:00  -  mph 1020.2mb 60f 72f
6:54  -  mph 1020.2mb 60f 72f
6:48 3 7 mph - 60f 73f
6:42 5 7 mph - 61f 73f
6:36 5 8 mph - 61f 73f
6:30 5 8 mph 1020.3mb 61f 73f
6:24 3 6 mph 1020.2mb 61f 74f
6:18 3 7 mph 1020.2mb 61f 74f
6:12 5 6 mph 1020.1mb 61f 74f
6:06 6 7 mph 1020mb 61f 74f
6:00 5 6 mph 1020mb 61f 75f
5:54 5 6 mph 1019.9mb 60f 76f
5:48  -  mph 1019.8mb 60f 76f
5:42  -  mph 1019.9mb 60f 77f
5:36  -  mph 1019.9mb 60f 77f
5:30 3 6 mph 1019.9mb 60f 77f
5:24 5 6 mph 1019.8mb 60f 78f
5:18 5 7 mph 1019.8mb 60f 78f
5:12 5 7 mph 1019.7mb 60f 78f
5:06 3 6 mph 1019.6mb 60f 79f
5:00 5 6 mph 1019.6mb 60f 78f
4:54 5 7 mph 1019.6mb 60f 79f
4:48 3 6 mph 1019.5mb 60f 79f
4:42 3 9 mph 1019.4mb 60f 79f
4:36 6 9 mph 1019.5mb 60f 79f
4:30 7 11 mph 1019.4mb 60f 79f
4:24 9 13 mph 1019.3mb 59f 79f
4:18 7 13 mph 1019.3mb 60f 79f
4:12 6 11 mph 1019.3mb 60f 79f
4:06 8 11 mph 1019.4mb 60f 79f
4:00 9 14 mph 1019.2mb 60f 79f
3:54 8 13 mph 1019.2mb 59f 79f
3:48 6 13 mph 1019.3mb 59f 80f
3:42 8 11 mph 1019.3mb 59f 80f
3:36 6 9 mph 1019.3mb 59f 80f
3:30 8 11 mph 1019.3mb 59f 80f
3:24 5 9 mph 1019.4mb 59f 80f
3:18 3 6 mph 1019.4mb 59f 77f
3:12 5 9 mph 1019.4mb 59f 78f
3:06 6 10 mph 1019.3mb 59f 79f
3:00 2 6 mph 1019.4mb 59f 76f
2:54 7 13 mph 1019.6mb 59f 73f
2:48 10 11 mph 1019.6mb 59f 74f
2:42 7 9 mph 1019.7mb 59f 73f
2:36 5 10 mph 1019.9mb 59f 72f
2:30 5 13 mph 1019.8mb 59f 79f
2:24 5 11 mph 1019.7mb 59f 79f
2:18 6 11 mph 1019.5mb 59f 80f
2:12 6 10 mph 1019.4mb 59f 79f
2:06 3 7 mph 1019.5mb 59f 79f
2:00 7 13 mph 1019.6mb 59f 78f
1:54 5 10 mph 1019.5mb 59f 79f
1:48 8 10 mph 1019.6mb 59f 79f
1:42 8 10 mph 1019.7mb 59f 79f
1:36 5 11 mph 1019.7mb 59f 78f
1:30 8 11 mph 1019.9mb 59f 78f
1:24 7 11 mph 1020mb 59f 78f
1:18 9 13 mph 1020.1mb 59f -
1:12 7 14 mph 1020.3mb 59f -
1:06 11 15 mph 1020.3mb 59f -
1:00 6 11 mph 1020.4mb 59f 78f
12:54 10 18 mph 1020.4mb 59f 78f
12:48 6 10 mph 1020.3mb 59f 78f
12:42 3 9 mph 1020.3mb 59f 78f
12:36 8 13 mph 1020.4mb 59f 78f
12:30 8 14 mph 1020.4mb 59f 78f
12:24 8 9 mph 1020.3mb 59f 77f
12:18 7 11 mph 1020.4mb 59f 77f
12:12 9 11 mph 1020.4mb 59f 77f
12:06 11 14 mph 1020.5mb 60f 77f
12:00 10 15 mph 1020.5mb 60f 77f
11:54 10 15 mph 1020.5mb 60f 77f
11:48 9 14 mph 1020.4mb 60f 77f
11:42 10 15 mph 1020.3mb 60f 76f
11:36 11 15 mph 1020.4mb 60f 76f
11:30 7 13 mph 1020.3mb 60f 76f
11:24 9 13 mph 1020.3mb 60f 76f
11:18 11 14 mph 1020.4mb 60f 76f
11:12 9 15 mph 1020.4mb 60f 76f
11:06 10 11 mph 1020.4mb 60f 76f
11:00 9 13 mph 1020.5mb 60f 75f
10:54 9 11 mph 1020.5mb 60f 75f
10:48 8 14 mph 1020.5mb 60f 75f
10:42 10 13 mph 1020.6mb 60f 74f
10:36 8 11 mph 1020.7mb 60f 74f
10:30 9 13 mph 1020.7mb 60f 74f
10:24 11 15 mph 1020.7mb 60f 73f
10:18 10 16 mph 1020.6mb 60f 73f
10:12 9 15 mph 1020.5mb 60f 73f
10:06 11 14 mph 1020.6mb 60f 72f
10:00 9 14 mph 1020.7mb 60f 72f
9:54 13 17 mph 1020.6mb 60f 72f
9:48 14 18 mph 1020.5mb 60f 72f
9:42 11 14 mph 1020.4mb 60f 71f
9:36 8 11 mph 1020.4mb 60f 71f
9:30 10 14 mph 1020.4mb 60f 70f
9:24 8 13 mph 1020.3mb 60f 70f
9:18 9 14 mph 1020.2mb 60f 70f
9:12 11 14 mph 1020.1mb 60f 70f
9:06 10 15 mph 1020.1mb 60f 70f
9:00 11 15 mph 1020mb 59f 70f
8:54 13 16 mph 1020mb 59f 69f
8:48 10 17 mph 1020mb 59f 69f
8:42 8 16 mph 1019.9mb 59f 69f
8:36 8 13 mph 1020mb 59f 69f
8:30 9 11 mph 1020mb 59f 68f
8:24 9 13 mph 1020mb 59f 68f
8:18 10 14 mph 1020mb 59f 68f
8:12 7 10 mph 1019.9mb 59f 68f
8:06 5 10 mph 1019.9mb 59f 67f
8:00 6 10 mph 1019.8mb 59f 67f
7:54 7 9 mph 1019.7mb 59f 66f
7:48 6 10 mph 1019.6mb 59f 66f
7:42 7 10 mph 1019.6mb 59f 65f
7:36 7 10 mph 1019.7mb 59f 65f
7:30 8 11 mph 1019.6mb 59f 65f
7:24 8 11 mph 1019.5mb 59f 65f
7:18 7 9 mph 1019.4mb 59f 65f
7:12 7 11 mph 1019.3mb 59f 65f
7:06 8 14 mph 1019.2mb 59f 65f
7:00 7 10 mph 1019.2mb 59f 64f
6:54 7 10 mph 1019.2mb 59f 64f
6:48 7 10 mph 1019.1mb 59f 64f
6:42 6 9 mph 1019.1mb 59f 64f
6:36 7 10 mph 1019mb 59f 64f
6:30 8 10 mph 1018.9mb 59f 64f
6:24 7 10 mph 1018.8mb 59f 64f
6:18 6 9 mph 1018.8mb 59f 64f
6:12 7 9 mph 1018.7mb 59f 64f
6:06 6 9 mph 1018.6mb 59f 64f
6:00 6 10 mph 1018.6mb 59f 64f
5:54 7 9 mph 1018.6mb 59f 64f
5:48 6 10 mph 1018.5mb 59f 64f
5:42 6 9 mph 1018.5mb 59f 65f
5:36 7 10 mph 1018.5mb 59f 65f
5:30 7 10 mph 1018.5mb 59f 65f
5:24 6 9 mph 1018.6mb 59f 65f
5:18 6 9 mph 1018.5mb 59f 65f
5:12 6 9 mph 1018.4mb 59f 65f
5:06 5 6 mph 1018.4mb 59f 65f
5:00 6 10 mph 1018.2mb 59f 65f
4:54 8 11 mph 1018.2mb 59f 66f
4:48 7 10 mph 1018.2mb 59f 66f
4:42 7 10 mph 1018.1mb 59f 66f
4:36 9 11 mph 1017.9mb 59f 66f
4:30 8 11 mph 1017.8mb 58f 67f
4:24 6 11 mph 1017.7mb 58f 67f
4:18 8 13 mph 1017.6mb 58f 67f
4:12 8 13 mph 1017.5mb 58f 67f
4:06 8 14 mph 1017.4mb 58f 67f
4:00 9 13 mph 1017.4mb 58f 67f
3:54 8 11 mph 1017.3mb 58f 67f
3:48 7 10 mph 1017.3mb 58f 67f
3:42 5 9 mph 1017.3mb 58f 67f
3:36 7 11 mph 1017.3mb 58f 67f
3:30 6 9 mph 1017.4mb 58f 67f
3:24 6 9 mph 1017.3mb 58f 68f
3:18 6 10 mph 1017.3mb 58f 68f
3:12 8 13 mph 1017.3mb 58f 69f
3:06 8 13 mph 1017.2mb 58f 69f
3:00 7 13 mph 1017.2mb 58f 69f
2:54 8 11 mph 1017.1mb 58f 69f
2:48 8 13 mph 1017.1mb - -
2:42 7 9 mph 1017.2mb - -
2:36 6 9 mph 1017.3mb - -
2:30 7 9 mph 1017.3mb 58f 68f
2:24 7 10 mph 1017.3mb 58f 68f
2:18 7 9 mph 1017.3mb 58f 69f
2:12 7 9 mph 1017.3mb 58f 69f
2:06 7 10 mph 1017.3mb 58f 69f
2:00 7 10 mph 1017.2mb 58f 70f
1:54 7 13 mph 1017.2mb 58f 70f
1:48 6 11 mph 1017.3mb 58f 70f
1:42 7 10 mph 1017.3mb 58f 70f
1:36 7 11 mph 1017.3mb 58f 70f
1:30 7 13 mph 1017.4mb 58f 70f
1:24 8 11 mph 1017.4mb 58f 71f
1:18 7 11 mph 1017.4mb 58f 71f
1:12 8 11 mph 1017.4mb 58f 71f
1:06 7 11 mph 1017.4mb 58f 71f
1:00 8 13 mph 1017.3mb 58f 71f
12:54 7 13 mph 1017.3mb 58f 70f
12:48 8 11 mph 1017.3mb 58f 70f
12:42 9 15 mph 1017.3mb 58f 70f
12:36 8 14 mph 1017.3mb 58f 70f
12:30 7 11 mph 1017.3mb 58f 69f
12:24 7 9 mph 1017.2mb 58f 69f